Time,TemperatureF,DewpointF,PressureIn,WindDirection,WindDirectionDegrees,WindSpeedMPH,WindSpeedGustMPH,Humidity,HourlyPrecipIn,Conditions,Clouds,dailyrainin,SoftwareType,DateUTC
2013-08-20 00:02:00,74.9,60.1,29.95,SSE,167,3.5,3.5,60,0.00,OVC,OVC,0.00,WeatherDisplay:10.37,2013-08-20 05:02:00,
2013-08-20 00:07:00,74.9,60.1,29.95,SSE,167,0.0,0.0,60,0.00,OVC,OVC,0.00,WeatherDisplay:10.37,2013-08-20 05:07:00,
2013-08-20 00:12:00,74.9,60.1,29.95,SSE,156,3.5,3.5,60,0.00,OVC,OVC,0.00,WeatherDisplay:10.37,2013-08-20 05:12:00,
2013-08-20 00:17:00,74.9,60.1,29.95,SSE,156,1.2,0.0,60,0.00,OVC,OVC,0.00,WeatherDisplay:10.37,2013-08-20 05:17:00,
2013-08-20 00:22:00,74.8,60.0,29.95,South,174,1.2,1.2,60,0.00,OVC,OVC,0.00,WeatherDisplay:10.37,2013-08-20 05:22:00,
2013-08-20 00:27:00,74.7,59.9,29.95,SSE,161,4.6,4.6,60,0.00,OVC,OVC,0.00,WeatherDisplay:10.37,2013-08-20 05:27:00,
2013-08-20 00:32:00,74.7,59.9,29.95,SSE,161,1.0,1.0,60,0.00,OVC,OVC,0.00,WeatherDisplay:10.37,2013-08-20 05:32:00,
2013-08-20 00:37:00,74.6,59.8,29.95,SSE,167,4.6,4.6,60,0.00,OVC,OVC,0.00,WeatherDisplay:10.37,2013-08-20 05:37:00,
2013-08-20 00:42:00,74.6,59.8,29.95,SSE,167,3.5,3.5,60,0.00,OVC,OVC,0.00,WeatherDisplay:10.37,2013-08-20 05:42:00,
2013-08-20 00:47:00,74.5,60.2,29.95,SSE,157,1.2,1.2,61,0.00,OVC,OVC,0.00,WeatherDisplay:10.37,2013-08-20 05:47:00,
2013-08-20 00:52:00,74.5,60.2,29.95,SSE,157,0.0,0.0,61,0.00,OVC,OVC,0.00,WeatherDisplay:10.37,2013-08-20 05:52:00,
2013-08-20 00:57:00,74.4,60.1,29.95,SSE,157,3.5,3.5,61,0.00,OVC,OVC,0.00,WeatherDisplay:10.37,2013-08-20 05:57:00,
2013-08-20 01:02:00,74.4,60.1,29.95,South,181,3.5,3.5,61,0.00,OVC,OVC,0.00,WeatherDisplay:10.37,2013-08-20 06:02:00,
2013-08-20 01:07:00,74.3,60.0,29.95,South,181,0.0,0.0,61,0.00,OVC,OVC,0.00,WeatherDisplay:10.37,2013-08-20 06:07:00,
2013-08-20 01:12:00,74.2,59.9,29.95,SSE,161,2.3,2.3,61,0.00,OVC,OVC,0.00,WeatherDisplay:10.37,2013-08-20 06:12:00,
2013-08-20 01:17:00,74.2,59.9,29.95,SSE,162,2.3,2.3,61,0.00,OVC,OVC,0.00,WeatherDisplay:10.37,2013-08-20 06:17:00,
2013-08-20 01:22:00,74.1,60.2,29.94,South,176,3.5,3.5,62,0.00,OVC,OVC,0.00,WeatherDisplay:10.37,2013-08-20 06:22:00,
2013-08-20 01:27:00,74.1,60.2,29.94,SE,146,1.2,1.2,62,0.00,OVC,OVC,0.00,WeatherDisplay:10.37,2013-08-20 06:27:00,
2013-08-20 01:32:00,74.1,60.2,29.94,SE,146,2.3,2.3,62,0.00,OVC,OVC,0.00,WeatherDisplay:10.37,2013-08-20 06:32:00,
2013-08-20 01:37:00,74.0,60.2,29.94,South,176,3.5,3.5,62,0.00,OVC,OVC,0.00,WeatherDisplay:10.37,2013-08-20 06:37:00,
2013-08-20 01:42:00,74.0,60.2,29.94,South,176,1.2,0.0,62,0.00,OVC,OVC,0.00,WeatherDisplay:10.37,2013-08-20 06:42:00,
2013-08-20 01:47:00,74.0,60.2,29.94,South,176,0.0,0.0,62,0.00,OVC,OVC,0.00,WeatherDisplay:10.37,2013-08-20 06:47:00,
2013-08-20 01:52:00,73.9,60.1,29.94,South,172,1.2,1.2,62,0.00,OVC,OVC,0.00,WeatherDisplay:10.37,2013-08-20 06:52:00,
2013-08-20 01:57:00,73.9,60.1,29.94,SE,142,6.0,6.0,62,0.00,OVC,OVC,0.00,WeatherDisplay:10.37,2013-08-20 06:57:00,
2013-08-20 02:02:00,74.0,60.2,29.94,SE,142,3.5,3.5,62,0.00,OVC,OVC,0.00,WeatherDisplay:10.37,2013-08-20 07:02:00,
2013-08-20 02:07:00,74.1,60.2,29.94,SE,143,3.5,3.5,62,0.00,OVC,OVC,0.00,WeatherDisplay:10.37,2013-08-20 07:07:00,
2013-08-20 02:12:00,74.1,60.2,29.94,SE,143,0.0,0.0,62,0.00,OVC,OVC,0.00,WeatherDisplay:10.37,2013-08-20 07:12:00,
2013-08-20 02:17:00,74.1,60.2,29.94,SE,143,2.3,2.3,62,0.00,OVC,OVC,0.00,WeatherDisplay:10.37,2013-08-20 07:17:00,
2013-08-20 02:22:00,73.9,60.1,29.94,SE,143,2.3,2.3,62,0.00,OVC,OVC,0.00,WeatherDisplay:10.37,2013-08-20 07:22:00,
2013-08-20 02:27:00,73.8,60.4,29.94,SE,143,3.5,3.5,63,0.00,OVC,OVC,0.00,WeatherDisplay:10.37,2013-08-20 07:27:00,
2013-08-20 02:32:00,73.8,60.4,29.94,South,172,3.5,3.5,63,0.00,OVC,OVC,0.00,WeatherDisplay:10.37,2013-08-20 07:32:00,
2013-08-20 02:37:00,73.8,60.4,29.94,South,172,3.0,3.0,63,0.00,OVC,OVC,0.00,WeatherDisplay:10.37,2013-08-20 07:37:00,
2013-08-20 02:42:00,73.8,60.4,29.94,South,172,3.5,3.5,63,0.00,OVC,OVC,0.00,WeatherDisplay:10.37,2013-08-20 07:42:00,
2013-08-20 02:47:00,73.9,60.5,29.94,SSE,161,1.2,0.0,63,0.00,OVC,OVC,0.00,WeatherDisplay:10.37,2013-08-20 07:47:00,
2013-08-20 02:52:00,73.9,60.5,29.94,SE,146,5.0,5.0,63,0.00,OVC,OVC,0.00,WeatherDisplay:10.37,2013-08-20 07:52:00,
2013-08-20 02:57:00,73.9,60.5,29.94,SE,146,3.5,3.5,63,0.00,OVC,OVC,0.00,WeatherDisplay:10.37,2013-08-20 07:57:00,
2013-08-20 03:02:00,73.9,60.5,29.94,SE,146,2.0,2.0,63,0.00,OVC,OVC,0.00,WeatherDisplay:10.37,2013-08-20 08:02:00,
2013-08-20 03:07:00,73.9,60.5,29.94,SSE,157,3.5,3.5,63,0.00,OVC,OVC,0.00,WeatherDisplay:10.37,2013-08-20 08:07:00,
2013-08-20 03:12:00,73.9,60.5,29.94,SSE,157,2.3,2.3,63,0.00,OVC,OVC,0.00,WeatherDisplay:10.37,2013-08-20 08:12:00,
2013-08-20 03:17:00,73.8,60.4,29.94,South,178,2.3,0.0,63,0.00,OVC,OVC,0.00,WeatherDisplay:10.37,2013-08-20 08:17:00,
2013-08-20 03:22:00,73.7,60.3,29.94,South,169,2.3,2.3,63,0.00,OVC,OVC,0.00,WeatherDisplay:10.37,2013-08-20 08:22:00,
2013-08-20 03:27:00,73.7,60.3,29.94,SSE,168,3.5,3.5,63,0.00,OVC,OVC,0.00,WeatherDisplay:10.37,2013-08-20 08:27:00,
2013-08-20 03:32:00,73.6,60.2,29.94,SSE,167,0.0,0.0,63,0.00,OVC,OVC,0.00,WeatherDisplay:10.37,2013-08-20 08:32:00,
2013-08-20 03:37:00,73.5,60.6,29.94,SSE,167,2.3,0.0,64,0.00,OVC,OVC,0.00,WeatherDisplay:10.37,2013-08-20 08:37:00,
2013-08-20 03:42:00,73.5,60.6,29.94,SSE,167,1.2,1.2,64,0.00,OVC,OVC,0.00,WeatherDisplay:10.37,2013-08-20 08:42:00,
2013-08-20 03:48:00,73.4,60.5,29.94,SSE,167,2.3,2.3,64,0.00,OVC,OVC,0.00,WeatherDisplay:10.37,2013-08-20 08:48:00,
2013-08-20 03:53:00,73.3,60.4,29.94,SSE,167,2.3,2.3,64,0.00,OVC,OVC,0.00,WeatherDisplay:10.37,2013-08-20 08:53:00,
2013-08-20 03:58:00,73.2,60.3,29.94,SSE,165,1.2,0.0,64,0.00,OVC,OVC,0.00,WeatherDisplay:10.37,2013-08-20 08:58:00,
2013-08-20 04:03:00,73.1,60.2,29.94,SSE,165,2.3,2.3,64,0.00,OVC,OVC,0.00,WeatherDisplay:10.37,2013-08-20 09:03:00,
2013-08-20 04:08:00,73.0,60.1,29.94,SSE,165,2.3,2.3,64,0.00,OVC,OVC,0.00,WeatherDisplay:10.37,2013-08-20 09:08:00,
2013-08-20 04:13:00,73.0,60.1,29.94,SSE,165,0.0,0.0,64,0.00,OVC,OVC,0.00,WeatherDisplay:10.37,2013-08-20 09:13:00,
2013-08-20 04:18:00,73.0,60.1,29.94,SSE,165,2.3,0.0,64,0.00,OVC,OVC,0.00,WeatherDisplay:10.37,2013-08-20 09:18:00,
2013-08-20 04:23:00,73.0,60.1,29.94,SSE,165,3.5,3.5,64,0.00,OVC,OVC,0.00,WeatherDisplay:10.37,2013-08-20 09:23:00,
2013-08-20 04:28:00,73.0,60.1,29.94,SSE,165,2.0,2.0,64,0.00,OVC,OVC,0.00,WeatherDisplay:10.37,2013-08-20 09:28:00,
2013-08-20 04:33:00,73.1,60.2,29.94,SSE,165,2.3,0.0,64,0.00,OVC,OVC,0.00,WeatherDisplay:10.37,2013-08-20 09:33:00,
2013-08-20 04:38:00,73.1,60.2,29.94,SSE,165,3.5,3.5,64,0.00,OVC,OVC,0.00,WeatherDisplay:10.37,2013-08-20 09:38:00,
2013-08-20 04:43:00,73.3,60.4,29.94,SSE,162,3.5,3.5,64,0.00,OVC,OVC,0.00,WeatherDisplay:10.37,2013-08-20 09:43:00,
2013-08-20 04:48:00,73.3,60.4,29.94,SSE,162,2.3,2.3,64,0.00,OVC,OVC,0.00,WeatherDisplay:10.37,2013-08-20 09:48:00,
2013-08-20 04:53:00,73.4,60.5,29.94,SSE,157,3.5,3.5,64,0.00,OVC,OVC,0.00,WeatherDisplay:10.37,2013-08-20 09:53:00,
2013-08-20 04:58:00,73.6,60.7,29.94,South,173,3.5,3.5,64,0.00,OVC,OVC,0.00,WeatherDisplay:10.37,2013-08-20 09:58:00,
2013-08-20 05:03:00,73.6,60.7,29.94,SSE,164,3.5,3.5,64,0.00,OVC,OVC,0.00,WeatherDisplay:10.37,2013-08-20 10:03:00,
2013-08-20 05:08:00,73.7,60.8,29.94,South,178,3.5,3.5,64,0.00,OVC,OVC,0.00,WeatherDisplay:10.37,2013-08-20 10:08:00,
2013-08-20 05:13:00,73.8,60.9,29.94,South,176,3.5,3.5,64,0.00,OVC,OVC,0.00,WeatherDisplay:10.37,2013-08-20 10:13:00,
2013-08-20 05:18:00,73.8,60.9,29.94,South,176,0.0,0.0,64,0.00,OVC,OVC,0.00,WeatherDisplay:10.37,2013-08-20 10:18:00,
2013-08-20 05:23:00,73.9,61.0,29.94,South,173,3.5,3.5,64,0.00,OVC,OVC,0.00,WeatherDisplay:10.37,2013-08-20 10:23:00,
2013-08-20 05:28:00,73.9,61.0,29.94,South,175,2.3,2.3,64,0.00,OVC,OVC,0.00,WeatherDisplay:10.37,2013-08-20 10:28:00,
2013-08-20 05:33:00,74.0,61.0,29.94,South,182,4.6,4.6,64,0.00,OVC,OVC,0.00,WeatherDisplay:10.37,2013-08-20 10:33:00,
2013-08-20 05:38:00,74.1,61.1,29.95,SSE,166,3.5,3.5,64,0.00,OVC,OVC,0.00,WeatherDisplay:10.37,2013-08-20 10:38:00,
2013-08-20 05:43:00,74.1,61.1,29.94,SSE,159,0.0,0.0,64,0.00,OVC,OVC,0.00,WeatherDisplay:10.37,2013-08-20 10:43:00,
2013-08-20 05:48:00,74.2,61.2,29.94,SSE,159,3.5,3.5,64,0.00,OVC,OVC,0.00,WeatherDisplay:10.37,2013-08-20 10:48:00,
2013-08-20 05:53:00,74.2,61.2,29.94,SSE,159,3.5,3.5,64,0.00,OVC,OVC,0.00,WeatherDisplay:10.37,2013-08-20 10:53:00,
2013-08-20 05:58:00,74.2,61.2,29.94,SSE,159,0.0,0.0,64,0.00,OVC,OVC,0.00,WeatherDisplay:10.37,2013-08-20 10:58:00,
2013-08-20 06:03:00,74.3,61.3,29.94,SSE,168,3.5,3.5,64,0.00,OVC,OVC,0.00,WeatherDisplay:10.37,2013-08-20 11:03:00,
2013-08-20 06:08:00,74.3,61.3,29.94,SSE,161,4.0,4.0,64,0.00,OVC,OVC,0.00,WeatherDisplay:10.37,2013-08-20 11:08:00,
2013-08-20 06:13:00,74.3,61.3,29.94,South,169,5.8,5.8,64,0.00,OVC,OVC,0.00,WeatherDisplay:10.37,2013-08-20 11:13:00,
2013-08-20 06:18:00,74.4,61.4,29.94,SSE,163,3.5,3.5,64,0.00,OVC,OVC,0.00,WeatherDisplay:10.37,2013-08-20 11:18:00,
2013-08-20 06:23:00,74.4,61.4,29.95,WSW,243,3.5,3.5,64,0.00,OVC,OVC,0.00,WeatherDisplay:10.37,2013-08-20 11:23:00,
2013-08-20 06:28:00,74.3,61.3,29.95,SSE,157,1.2,0.0,64,0.00,OVC,OVC,0.00,WeatherDisplay:10.37,2013-08-20 11:28:00,
2013-08-20 06:33:00,74.4,61.4,29.95,South,185,3.5,3.5,64,0.00,OVC,OVC,0.00,WeatherDisplay:10.37,2013-08-20 11:33:00,
2013-08-20 06:38:00,74.4,61.4,29.95,South,174,1.2,0.0,64,0.00,OVC,OVC,0.00,WeatherDisplay:10.37,2013-08-20 11:38:00,
2013-08-20 06:43:00,74.4,61.4,29.95,South,188,4.6,4.6,64,0.00,OVC,OVC,0.00,WeatherDisplay:10.37,2013-08-20 11:43:00,
2013-08-20 06:48:00,74.3,61.3,29.95,SSE,148,3.5,3.5,64,0.00,OVC,OVC,0.00,WeatherDisplay:10.37,2013-08-20 11:48:00,
2013-08-20 06:53:00,74.3,61.3,29.95,SSE,150,5.8,5.8,64,0.00,OVC,OVC,0.00,WeatherDisplay:10.37,2013-08-20 11:53:00,
2013-08-20 06:58:00,74.2,61.2,29.96,South,178,3.0,3.0,64,0.00,OVC,OVC,0.00,WeatherDisplay:10.37,2013-08-20 11:58:00,
2013-08-20 07:03:00,74.2,61.2,29.96,SSE,157,5.8,5.8,64,0.00,OVC,OVC,0.00,WeatherDisplay:10.37,2013-08-20 12:03:00,
2013-08-20 07:08:00,74.2,61.2,29.96,SSE,159,3.5,3.5,64,0.00,OVC,OVC,0.00,WeatherDisplay:10.37,2013-08-20 12:08:00,
2013-08-20 07:13:00,74.1,61.1,29.96,South,169,2.3,2.3,64,0.00,OVC,OVC,0.00,WeatherDisplay:10.37,2013-08-20 12:13:00,
2013-08-20 07:18:00,74.1,61.1,29.96,SSE,159,2.3,2.3,64,0.00,OVC,OVC,0.00,WeatherDisplay:10.37,2013-08-20 12:18:00,
2013-08-20 07:23:00,74.2,61.2,29.96,South,182,10.4,10.4,64,0.00,OVC,OVC,0.00,WeatherDisplay:10.37,2013-08-20 12:23:00,
2013-08-20 07:28:00,74.3,61.3,29.96,SSE,164,3.5,3.5,64,0.00,OVC,OVC,0.00,WeatherDisplay:10.37,2013-08-20 12:28:00,
2013-08-20 07:33:00,74.5,61.5,29.96,SSE,157,4.6,4.6,64,0.00,OVC,OVC,0.00,WeatherDisplay:10.37,2013-08-20 12:33:00,
2013-08-20 07:38:00,74.7,61.7,29.96,South,174,8.1,8.1,64,0.00,OVC,OVC,0.00,WeatherDisplay:10.37,2013-08-20 12:38:00,
2013-08-20 07:43:00,74.9,61.9,29.96,SSE,161,4.0,4.0,64,0.00,OVC,OVC,0.00,WeatherDisplay:10.37,2013-08-20 12:43:00,
2013-08-20 07:48:00,75.0,62.0,29.96,SSE,164,5.8,5.8,64,0.00,OVC,OVC,0.00,WeatherDisplay:10.37,2013-08-20 12:48:00,
2013-08-20 07:53:00,75.1,62.1,29.96,SSE,147,6.9,6.9,64,0.00,OVC,OVC,0.00,WeatherDisplay:10.37,2013-08-20 12:53:00,
2013-08-20 07:58:00,75.1,62.1,29.97,SSE,153,5.8,5.8,64,0.00,OVC,OVC,0.00,WeatherDisplay:10.37,2013-08-20 12:58:00,
2013-08-20 08:03:00,75.0,62.0,29.97,South,173,4.6,4.6,64,0.00,OVC,OVC,0.00,WeatherDisplay:10.37,2013-08-20 13:03:00,
2013-08-20 08:08:00,74.9,61.9,29.97,SSE,150,3.5,3.5,64,0.00,OVC,OVC,0.00,WeatherDisplay:10.37,2013-08-20 13:08:00,
2013-08-20 08:13:00,74.9,61.9,29.97,South,170,4.6,4.6,64,0.00,OVC,OVC,0.00,WeatherDisplay:10.37,2013-08-20 13:13:00,
2013-08-20 08:18:00,74.9,61.9,29.97,South,178,5.8,5.8,64,0.00,OVC,OVC,0.00,WeatherDisplay:10.37,2013-08-20 13:18:00,
2013-08-20 08:23:00,75.1,62.1,29.97,SSE,165,3.5,3.5,64,0.00,OVC,OVC,0.00,WeatherDisplay:10.37,2013-08-20 13:23:00,
2013-08-20 08:28:00,75.5,62.5,29.97,SSE,153,4.6,4.6,64,0.00,OVC,OVC,0.00,WeatherDisplay:10.37,2013-08-20 13:28:00,
2013-08-20 08:33:00,75.7,62.7,29.97,South,172,6.0,6.0,64,0.00,OVC,OVC,0.00,WeatherDisplay:10.37,2013-08-20 13:33:00,
2013-08-20 08:38:00,76.1,63.0,29.97,SSE,151,3.5,3.5,64,0.00,OVC,OVC,0.00,WeatherDisplay:10.37,2013-08-20 13:38:00,
2013-08-20 08:43:00,76.4,62.9,29.97,South,169,5.8,5.8,63,0.00,OVC,OVC,0.00,WeatherDisplay:10.37,2013-08-20 13:43:00,
2013-08-20 08:48:00,76.7,63.2,29.97,SSE,163,5.8,5.8,63,0.00,OVC,OVC,0.00,WeatherDisplay:10.37,2013-08-20 13:48:00,
2013-08-20 08:53:00,77.0,63.4,29.97,South,174,11.5,11.5,63,0.00,OVC,OVC,0.00,WeatherDisplay:10.37,2013-08-20 13:53:00,
2013-08-20 08:58:00,77.5,63.9,29.97,South,169,1.2,1.2,63,0.00,OVC,OVC,0.00,WeatherDisplay:10.37,2013-08-20 13:58:00,
2013-08-20 09:03:00,78.0,63.9,29.97,WSW,243,6.9,6.9,62,0.00,OVC,OVC,0.00,WeatherDisplay:10.37,2013-08-20 14:03:00,
2013-08-20 09:08:00,78.5,63.9,29.97,SSE,156,5.8,5.8,61,0.00,OVC,OVC,0.00,WeatherDisplay:10.37,2013-08-20 14:08:00,
2013-08-20 09:13:00,78.7,64.1,29.97,SSE,147,5.0,5.0,61,0.00,OVC,OVC,0.00,WeatherDisplay:10.37,2013-08-20 14:13:00,
2013-08-20 09:18:00,78.6,64.0,29.97,South,180,5.0,5.0,61,0.00,OVC,OVC,0.00,WeatherDisplay:10.37,2013-08-20 14:18:00,
2013-08-20 09:23:00,78.3,63.7,29.97,South,191,3.5,3.5,61,0.00,OVC,OVC,0.00,WeatherDisplay:10.37,2013-08-20 14:23:00,
2013-08-20 09:28:00,78.3,63.7,29.97,SSE,152,4.0,4.0,61,0.00,OVC,OVC,0.00,WeatherDisplay:10.37,2013-08-20 14:28:00,
2013-08-20 09:34:00,78.6,64.0,29.97,SSE,155,6.9,6.9,61,0.00,OVC,OVC,0.00,WeatherDisplay:10.37,2013-08-20 14:34:00,
2013-08-20 09:39:00,78.7,64.1,29.97,South,173,6.0,6.0,61,0.00,OVC,OVC,0.00,WeatherDisplay:10.37,2013-08-20 14:39:00,
2013-08-20 09:44:00,79.1,64.5,29.97,SSE,147,9.0,9.0,61,0.00,OVC,OVC,0.00,WeatherDisplay:10.37,2013-08-20 14:44:00,
2013-08-20 09:49:00,79.4,64.8,29.97,SSE,165,3.5,3.8,61,0.00,OVC,OVC,0.00,WeatherDisplay:10.37,2013-08-20 14:49:00,
2013-08-20 09:54:00,79.8,64.7,29.97,South,172,4.6,4.6,60,0.00,OVC,OVC,0.00,WeatherDisplay:10.37,2013-08-20 14:54:00,
2013-08-20 09:59:00,80.4,64.8,29.97,South,180,6.9,6.9,59,0.00,OVC,OVC,0.00,WeatherDisplay:10.37,2013-08-20 14:59:00,
2013-08-20 10:04:00,80.4,64.8,29.97,SSE,157,6.0,6.0,59,0.00,OVC,OVC,0.00,WeatherDisplay:10.37,2013-08-20 15:04:00,
2013-08-20 10:09:00,80.3,64.7,29.97,SSE,157,3.5,3.5,59,0.00,OVC,OVC,0.00,WeatherDisplay:10.37,2013-08-20 15:09:00,
2013-08-20 10:14:00,80.2,64.6,29.97,SSE,162,11.5,11.5,59,0.00,OVC,OVC,0.00,WeatherDisplay:10.37,2013-08-20 15:14:00,
2013-08-20 10:19:00,80.5,65.3,29.97,SSE,157,2.3,2.3,60,0.00,OVC,OVC,0.00,WeatherDisplay:10.37,2013-08-20 15:19:00,
2013-08-20 10:24:00,81.0,65.3,29.97,SE,132,5.8,5.8,59,0.00,OVC,OVC,0.00,WeatherDisplay:10.37,2013-08-20 15:24:00,
2013-08-20 10:29:00,81.7,65.5,29.97,South,173,3.5,3.5,58,0.00,OVC,OVC,0.00,WeatherDisplay:10.37,2013-08-20 15:29:00,
2013-08-20 10:34:00,82.1,65.4,29.97,SSE,148,6.9,6.9,57,0.00,OVC,OVC,0.00,WeatherDisplay:10.37,2013-08-20 15:34:00,
2013-08-20 10:39:00,82.1,64.3,29.97,SE,131,9.2,9.2,55,0.00,OVC,OVC,0.00,WeatherDisplay:10.37,2013-08-20 15:39:00,
2013-08-20 10:44:00,81.9,64.1,29.97,SSE,160,6.9,6.9,55,0.00,OVC,OVC,0.00,WeatherDisplay:10.37,2013-08-20 15:44:00,
2013-08-20 10:49:00,81.9,64.7,29.97,South,172,8.1,8.1,56,0.00,OVC,OVC,0.00,WeatherDisplay:10.37,2013-08-20 15:49:00,
2013-08-20 10:54:00,82.0,64.8,29.97,South,190,9.2,9.2,56,0.00,OVC,OVC,0.00,WeatherDisplay:10.37,2013-08-20 15:54:00,
2013-08-20 10:59:00,82.3,65.0,29.97,SE,142,5.8,5.8,56,0.00,OVC,OVC,0.00,WeatherDisplay:10.37,2013-08-20 15:59:00,
2013-08-20 11:04:00,82.8,65.5,29.97,SSE,154,3.0,3.0,56,0.00,OVC,OVC,0.00,WeatherDisplay:10.37,2013-08-20 16:04:00,
2013-08-20 11:09:00,83.2,64.8,29.96,South,183,5.0,5.0,54,0.00,OVC,OVC,0.00,WeatherDisplay:10.37,2013-08-20 16:09:00,
2013-08-20 11:14:00,83.8,64.8,29.96,ESE,120,12.7,12.7,53,0.00,OVC,OVC,0.00,WeatherDisplay:10.37,2013-08-20 16:14:00,
2013-08-20 11:19:00,84.4,64.9,29.96,SE,126,6.9,6.9,52,0.00,OVC,OVC,0.00,WeatherDisplay:10.37,2013-08-20 16:19:00,
2013-08-20 11:24:00,84.9,65.3,29.96,SE,140,3.5,3.5,52,0.00,OVC,OVC,0.00,WeatherDisplay:10.37,2013-08-20 16:24:00,
2013-08-20 11:29:00,85.5,64.7,29.96,SE,124,5.8,5.8,50,0.00,OVC,OVC,0.00,WeatherDisplay:10.37,2013-08-20 16:29:00,
2013-08-20 11:34:00,85.8,64.4,29.96,SSE,168,16.1,16.1,49,0.00,OVC,OVC,0.00,WeatherDisplay:10.37,2013-08-20 16:34:00,
2013-08-20 11:39:00,86.2,64.8,29.96,ESE,105,7.0,7.0,49,0.00,OVC,OVC,0.00,WeatherDisplay:10.37,2013-08-20 16:39:00,
2013-08-20 11:44:00,86.7,64.1,29.95,SSE,148,4.6,4.6,47,0.00,OVC,OVC,0.00,WeatherDisplay:10.37,2013-08-20 16:44:00,
2013-08-20 11:49:00,87.1,63.8,29.95,SE,142,9.2,9.2,46,0.00,OVC,OVC,0.00,WeatherDisplay:10.37,2013-08-20 16:49:00,
2013-08-20 11:54:00,87.1,63.8,29.95,South,182,10.4,10.4,46,0.00,OVC,OVC,0.00,WeatherDisplay:10.37,2013-08-20 16:54:00,
2013-08-20 11:59:00,87.6,63.0,29.95,South,181,10.4,10.4,44,0.00,OVC,OVC,0.00,WeatherDisplay:10.37,2013-08-20 16:59:00,
2013-08-20 12:04:00,87.6,62.3,29.95,WNW,297,5.8,5.8,43,0.00,OVC,OVC,0.00,WeatherDisplay:10.37,2013-08-20 17:04:00,
2013-08-20 12:09:00,87.6,62.3,29.95,SE,133,9.2,9.2,43,0.00,OVC,OVC,0.00,WeatherDisplay:10.37,2013-08-20 17:09:00,
2013-08-20 12:14:00,88.0,62.0,29.95,South,180,12.0,12.0,42,0.00,OVC,OVC,0.00,WeatherDisplay:10.37,2013-08-20 17:14:00,
2013-08-20 12:19:00,88.6,62.6,29.95,SE,144,11.5,11.5,42,0.00,OVC,OVC,0.00,WeatherDisplay:10.37,2013-08-20 17:19:00,
2013-08-20 12:24:00,89.2,62.4,29.94,SSE,154,9.2,9.2,41,0.00,OVC,OVC,0.00,WeatherDisplay:10.37,2013-08-20 17:24:00,
2013-08-20 12:29:00,89.4,61.9,29.94,SE,127,11.5,11.5,40,0.00,OVC,OVC,0.00,WeatherDisplay:10.37,2013-08-20 17:29:00,
2013-08-20 12:34:00,89.1,61.6,29.94,South,178,3.5,3.5,40,0.00,OVC,OVC,0.00,WeatherDisplay:10.37,2013-08-20 17:34:00,
2013-08-20 12:39:00,88.9,60.7,29.94,SSE,160,11.5,11.5,39,0.00,OVC,OVC,0.00,WeatherDisplay:10.37,2013-08-20 17:39:00,
2013-08-20 12:44:00,88.6,60.5,29.94,SE,130,12.7,12.7,39,0.00,OVC,OVC,0.00,WeatherDisplay:10.37,2013-08-20 17:44:00,
2013-08-20 12:49:00,88.5,61.1,29.93,SW,226,4.6,4.6,40,0.00,OVC,OVC,0.00,WeatherDisplay:10.37,2013-08-20 17:49:00,
2013-08-20 12:54:00,88.2,60.8,29.93,SSE,155,3.5,3.5,40,0.00,OVC,OVC,0.00,WeatherDisplay:10.37,2013-08-20 17:54:00,
2013-08-20 12:59:00,88.2,61.5,29.93,SSE,152,3.5,3.5,41,0.00,OVC,OVC,0.00,WeatherDisplay:10.37,2013-08-20 17:59:00,
2013-08-20 13:04:00,88.8,61.4,29.93,SSE,161,6.9,6.9,40,0.00,OVC,OVC,0.00,WeatherDisplay:10.37,2013-08-20 18:04:00,
2013-08-20 13:09:00,89.2,61.7,29.93,West,263,6.9,6.9,40,0.00,OVC,OVC,0.00,WeatherDisplay:10.37,2013-08-20 18:09:00,
2013-08-20 13:14:00,89.6,62.1,29.93,SE,134,4.6,4.6,40,0.00,OVC,OVC,0.00,WeatherDisplay:10.37,2013-08-20 18:14:00,
2013-08-20 13:19:00,90.2,61.2,29.93,South,171,4.0,4.0,38,0.00,OVC,OVC,0.00,WeatherDisplay:10.37,2013-08-20 18:19:00,
2013-08-20 13:24:00,90.6,60.8,29.92,South,179,1.2,1.2,37,0.00,OVC,OVC,0.00,WeatherDisplay:10.37,2013-08-20 18:24:00,
2013-08-20 13:29:00,91.0,61.9,29.92,SSW,198,7.0,7.0,38,0.00,OVC,OVC,0.00,WeatherDisplay:10.37,2013-08-20 18:29:00,
2013-08-20 13:34:00,91.2,62.0,29.92,SSE,165,6.9,6.9,38,0.00,OVC,OVC,0.00,WeatherDisplay:10.37,2013-08-20 18:34:00,
2013-08-20 13:39:00,91.4,61.5,29.92,SSW,202,5.8,5.8,37,0.00,OVC,OVC,0.00,WeatherDisplay:10.37,2013-08-20 18:39:00,
2013-08-20 13:44:00,91.8,61.8,29.92,SE,146,4.6,4.6,37,0.00,OVC,OVC,0.00,WeatherDisplay:10.37,2013-08-20 18:44:00,
2013-08-20 13:49:00,92.0,62.0,29.92,SSE,153,11.5,11.5,37,0.00,OVC,OVC,0.00,WeatherDisplay:10.37,2013-08-20 18:49:00,
2013-08-20 13:54:00,92.0,62.0,29.92,ESE,104,12.7,12.7,37,0.00,OVC,OVC,0.00,WeatherDisplay:10.37,2013-08-20 18:54:00,
2013-08-20 13:59:00,92.0,62.8,29.92,South,180,10.4,10.4,38,0.00,OVC,OVC,0.00,WeatherDisplay:10.37,2013-08-20 18:59:00,
2013-08-20 14:04:00,92.0,62.0,29.92,SSE,148,11.5,11.5,37,0.00,OVC,OVC,0.00,WeatherDisplay:10.37,2013-08-20 19:04:00,
2013-08-20 14:09:00,91.8,62.6,29.92,South,191,12.7,12.7,38,0.00,OVC,OVC,0.00,WeatherDisplay:10.37,2013-08-20 19:09:00,
2013-08-20 14:14:00,91.8,62.6,29.92,SE,146,10.4,10.4,38,0.00,OVC,OVC,0.00,WeatherDisplay:10.37,2013-08-20 19:14:00,
2013-08-20 14:19:00,91.8,62.6,29.92,South,173,11.5,11.5,38,0.00,OVC,OVC,0.00,WeatherDisplay:10.37,2013-08-20 19:19:00,
2013-08-20 14:24:00,91.8,62.6,29.91,SSE,148,11.5,11.5,38,0.00,OVC,OVC,0.00,WeatherDisplay:10.37,2013-08-20 19:24:00,
2013-08-20 14:29:00,91.9,63.4,29.91,South,182,3.5,3.5,39,0.00,OVC,OVC,0.00,WeatherDisplay:10.37,2013-08-20 19:29:00,
2013-08-20 14:34:00,92.4,63.1,29.91,SE,128,8.1,8.1,38,0.00,OVC,OVC,0.00,WeatherDisplay:10.37,2013-08-20 19:34:00,
2013-08-20 14:39:00,92.6,62.5,29.91,WNW,288,8.1,8.1,37,0.00,OVC,OVC,0.00,WeatherDisplay:10.37,2013-08-20 19:39:00,
2013-08-20 14:44:00,92.6,62.5,29.91,SE,134,13.0,13.0,37,0.00,OVC,OVC,0.00,WeatherDisplay:10.37,2013-08-20 19:44:00,
2013-08-20 14:49:00,92.3,62.3,29.91,South,171,13.8,13.8,37,0.00,OVC,OVC,0.00,WeatherDisplay:10.37,2013-08-20 19:49:00,
2013-08-20 14:54:00,92.6,62.5,29.91,SSE,159,13.0,13.0,37,0.00,OVC,OVC,0.00,WeatherDisplay:10.37,2013-08-20 19:54:00,
2013-08-20 14:59:00,92.8,62.7,29.90,SSW,196,7.0,7.0,37,0.00,OVC,OVC,0.00,WeatherDisplay:10.37,2013-08-20 19:59:00,
2013-08-20 15:05:00,93.0,62.1,29.90,SSE,148,10.0,10.0,36,0.00,OVC,OVC,0.00,WeatherDisplay:10.37,2013-08-20 20:05:00,
2013-08-20 15:10:00,93.2,61.5,29.90,SW,223,17.3,17.3,35,0.00,OVC,OVC,0.00,WeatherDisplay:10.37,2013-08-20 20:10:00,
2013-08-20 15:15:00,93.0,61.3,29.90,SSE,150,12.7,12.7,35,0.00,OVC,OVC,0.00,WeatherDisplay:10.37,2013-08-20 20:15:00,
2013-08-20 15:20:00,93.0,61.3,29.90,SE,144,13.8,13.8,35,0.00,OVC,OVC,0.00,WeatherDisplay:10.37,2013-08-20 20:20:00,
2013-08-20 15:25:00,92.8,61.1,29.90,SSE,163,6.9,6.9,35,0.00,OVC,OVC,0.00,WeatherDisplay:10.37,2013-08-20 20:25:00,
2013-08-20 15:30:00,92.8,61.9,29.89,SSE,166,12.7,12.7,36,0.00,OVC,OVC,0.00,WeatherDisplay:10.37,2013-08-20 20:30:00,
2013-08-20 15:35:00,92.9,62.0,29.89,SSE,165,11.5,11.5,36,0.00,OVC,OVC,0.00,WeatherDisplay:10.37,2013-08-20 20:35:00,
2013-08-20 15:40:00,92.8,61.9,29.89,SE,146,6.9,6.9,36,0.00,OVC,OVC,0.00,WeatherDisplay:10.37,2013-08-20 20:40:00,
2013-08-20 15:45:00,92.7,61.8,29.89,SSE,164,11.5,11.5,36,0.00,OVC,OVC,0.00,WeatherDisplay:10.37,2013-08-20 20:45:00,
2013-08-20 15:50:00,92.8,62.7,29.89,SSE,160,4.0,4.0,37,0.00,OVC,OVC,0.00,WeatherDisplay:10.37,2013-08-20 20:50:00,
2013-08-20 15:55:00,93.0,61.3,29.89,South,175,11.5,11.5,35,0.00,OVC,OVC,0.00,WeatherDisplay:10.37,2013-08-20 20:55:00,
2013-08-20 16:00:00,92.8,61.9,29.89,South,189,10.4,10.4,36,0.00,OVC,OVC,0.00,WeatherDisplay:10.37,2013-08-20 21:00:00,
2013-08-20 16:05:00,92.6,61.7,29.89,SW,219,11.5,11.5,36,0.00,OVC,OVC,0.00,WeatherDisplay:10.37,2013-08-20 21:05:00,
2013-08-20 16:10:00,92.4,60.0,29.89,SSE,155,8.1,8.1,34,0.00,OVC,OVC,0.00,WeatherDisplay:10.37,2013-08-20 21:10:00,
2013-08-20 16:15:00,92.5,60.0,29.89,SSE,153,6.0,7.6,34,0.00,OVC,OVC,0.00,WeatherDisplay:10.37,2013-08-20 21:15:00,
2013-08-20 16:20:00,92.7,61.0,29.89,SSE,163,12.7,12.7,35,0.00,OVC,OVC,0.00,WeatherDisplay:10.37,2013-08-20 21:20:00,
2013-08-20 16:25:00,92.7,61.0,29.89,South,169,6.9,6.9,35,0.00,OVC,OVC,0.00,WeatherDisplay:10.37,2013-08-20 21:25:00,
2013-08-20 16:30:00,92.8,61.1,29.89,South,177,11.5,11.5,35,0.00,OVC,OVC,0.00,WeatherDisplay:10.37,2013-08-20 21:30:00,
2013-08-20 16:35:00,93.1,61.4,29.89,SSE,161,11.5,11.5,35,0.00,OVC,OVC,0.00,WeatherDisplay:10.37,2013-08-20 21:35:00,
2013-08-20 16:40:00,93.0,60.5,29.88,SE,138,8.1,8.1,34,0.00,OVC,OVC,0.00,WeatherDisplay:10.37,2013-08-20 21:40:00,
2013-08-20 16:45:00,93.1,60.6,29.88,SSE,168,9.2,9.2,34,0.00,OVC,OVC,0.00,WeatherDisplay:10.37,2013-08-20 21:45:00,
2013-08-20 16:50:00,93.2,60.7,29.88,SW,221,11.5,11.5,34,0.00,OVC,OVC,0.00,WeatherDisplay:10.37,2013-08-20 21:50:00,
2013-08-20 16:55:00,93.0,60.5,29.89,SSE,157,10.4,10.4,34,0.00,OVC,OVC,0.00,WeatherDisplay:10.37,2013-08-20 21:55:00,
2013-08-20 17:00:00,92.8,60.3,29.88,South,184,13.8,13.8,34,0.00,OVC,OVC,0.00,WeatherDisplay:10.37,2013-08-20 22:00:00,
2013-08-20 17:05:00,92.5,60.0,29.88,SSE,152,12.7,12.7,34,0.00,OVC,OVC,0.00,WeatherDisplay:10.37,2013-08-20 22:05:00,
2013-08-20 17:10:00,92.4,60.0,29.88,West,265,4.6,4.6,34,0.00,OVC,OVC,0.00,WeatherDisplay:10.37,2013-08-20 22:10:00,
2013-08-20 17:15:00,92.2,60.6,29.89,SSE,161,6.0,6.0,35,0.00,OVC,OVC,0.00,WeatherDisplay:10.37,2013-08-20 22:15:00,
2013-08-20 17:20:00,92.1,61.3,29.89,South,171,4.6,4.6,36,0.00,OVC,OVC,0.00,WeatherDisplay:10.37,2013-08-20 22:20:00,
2013-08-20 17:25:00,92.2,61.4,29.88,SSE,155,6.9,6.9,36,0.00,OVC,OVC,0.00,WeatherDisplay:10.37,2013-08-20 22:25:00,
2013-08-20 17:30:00,92.0,60.4,29.88,South,170,11.5,11.5,35,0.00,OVC,OVC,0.00,WeatherDisplay:10.37,2013-08-20 22:30:00,
2013-08-20 17:35:00,91.8,61.0,29.88,SE,140,9.2,9.2,36,0.00,CLR,CLR,0.00,WeatherDisplay:10.37,2013-08-20 22:35:00,
2013-08-20 17:40:00,91.7,61.0,29.88,South,178,10.4,10.4,36,0.00,OVC,OVC,0.00,WeatherDisplay:10.37,2013-08-20 22:40:00,
2013-08-20 17:45:00,91.4,60.7,29.89,SSE,157,6.9,6.9,36,0.00,OVC,OVC,0.00,WeatherDisplay:10.37,2013-08-20 22:45:00,
2013-08-20 17:50:00,91.2,61.3,29.89,SSE,168,5.8,5.8,37,0.00,OVC,OVC,0.00,WeatherDisplay:10.37,2013-08-20 22:50:00,
2013-08-20 17:55:00,91.3,61.4,29.89,South,188,11.5,11.5,37,0.00,OVC,OVC,0.00,WeatherDisplay:10.37,2013-08-20 22:55:00,
2013-08-20 18:00:00,91.2,60.5,29.88,SSE,165,5.8,5.8,36,0.00,OVC,OVC,0.00,WeatherDisplay:10.37,2013-08-20 23:00:00,
2013-08-20 18:05:00,91.3,61.4,29.89,SSE,156,4.6,4.6,37,0.00,OVC,OVC,0.00,WeatherDisplay:10.37,2013-08-20 23:05:00,
2013-08-20 18:10:00,91.2,60.5,29.89,ESE,123,6.9,6.9,36,0.00,OVC,OVC,0.00,WeatherDisplay:10.37,2013-08-20 23:10:00,
2013-08-20 18:15:00,90.9,60.3,29.89,SSE,150,9.2,9.2,36,0.00,OVC,OVC,0.00,WeatherDisplay:10.37,2013-08-20 23:15:00,
2013-08-20 18:20:00,90.6,60.8,29.89,SE,144,11.5,11.5,37,0.00,OVC,OVC,0.00,WeatherDisplay:10.37,2013-08-20 23:20:00,
2013-08-20 18:25:00,90.6,60.8,29.88,SSE,151,3.5,3.5,37,0.00,OVC,OVC,0.00,WeatherDisplay:10.37,2013-08-20 23:25:00,
2013-08-20 18:30:00,90.6,60.8,29.89,SSE,157,9.2,9.2,37,0.00,OVC,OVC,0.00,WeatherDisplay:10.37,2013-08-20 23:30:00,
2013-08-20 18:35:00,90.5,61.4,29.89,SSE,147,3.5,3.5,38,0.00,OVC,OVC,0.00,WeatherDisplay:10.37,2013-08-20 23:35:00,
2013-08-20 18:40:00,90.5,60.7,29.89,South,169,10.4,10.4,37,0.00,OVC,OVC,0.00,WeatherDisplay:10.37,2013-08-20 23:40:00,
2013-08-20 18:45:00,90.4,60.6,29.88,SSW,211,6.9,6.9,37,0.00,OVC,OVC,0.00,WeatherDisplay:10.37,2013-08-20 23:45:00,
2013-08-20 18:50:00,90.2,61.2,29.88,South,175,10.4,10.4,38,0.00,OVC,OVC,0.00,WeatherDisplay:10.37,2013-08-20 23:50:00,
2013-08-20 18:55:00,89.9,60.9,29.89,SSE,159,9.2,9.2,38,0.00,OVC,OVC,0.00,WeatherDisplay:10.37,2013-08-20 23:55:00,
2013-08-20 19:00:00,89.7,60.7,29.89,SW,215,9.2,9.2,38,0.00,OVC,OVC,0.00,WeatherDisplay:10.37,2013-08-21 00:00:00,
2013-08-20 19:05:00,89.5,61.3,29.89,SSE,162,10.4,10.4,39,0.00,OVC,OVC,0.00,WeatherDisplay:10.37,2013-08-21 00:05:00,
2013-08-20 19:10:00,89.3,61.1,29.88,SSE,168,9.2,9.2,39,0.00,OVC,OVC,0.00,WeatherDisplay:10.37,2013-08-21 00:10:00,
2013-08-20 19:15:00,89.0,60.8,29.88,SW,221,5.8,5.8,39,0.00,OVC,OVC,0.00,WeatherDisplay:10.37,2013-08-21 00:15:00,
2013-08-20 19:20:00,88.7,60.6,29.89,SE,145,16.1,16.1,39,0.00,OVC,OVC,0.00,WeatherDisplay:10.37,2013-08-21 00:20:00,
2013-08-20 19:25:00,88.5,61.1,29.89,South,172,4.6,4.6,40,0.00,OVC,OVC,0.00,WeatherDisplay:10.37,2013-08-21 00:25:00,
2013-08-20 19:30:00,88.1,61.4,29.89,SSE,161,6.9,6.9,41,0.00,OVC,OVC,0.00,WeatherDisplay:10.37,2013-08-21 00:30:00,
2013-08-20 19:35:00,87.6,61.0,29.89,SSE,160,3.0,3.0,41,0.00,OVC,OVC,0.00,WeatherDisplay:10.37,2013-08-21 00:35:00,
2013-08-20 19:40:00,87.1,61.2,29.89,SSE,160,3.5,3.5,42,0.00,OVC,OVC,0.00,WeatherDisplay:10.37,2013-08-21 00:40:00,
2013-08-20 19:45:00,86.8,61.0,29.89,SSE,162,3.5,3.5,42,0.00,OVC,OVC,0.00,WeatherDisplay:10.37,2013-08-21 00:45:00,
2013-08-20 19:50:00,86.4,61.3,29.89,SSE,162,4.6,4.6,43,0.00,OVC,OVC,0.00,WeatherDisplay:10.37,2013-08-21 00:50:00,
2013-08-20 19:56:00,86.0,60.9,29.89,SSE,167,3.5,3.5,43,0.00,OVC,OVC,0.00,WeatherDisplay:10.37,2013-08-21 00:56:00,
2013-08-20 20:01:00,85.7,61.3,29.89,SSE,154,4.6,4.6,44,0.00,OVC,OVC,0.00,WeatherDisplay:10.37,2013-08-21 01:01:00,
2013-08-20 20:06:00,85.4,61.0,29.89,SSE,152,3.5,3.5,44,0.00,OVC,OVC,0.00,WeatherDisplay:10.37,2013-08-21 01:06:00,
2013-08-20 20:11:00,85.0,61.3,29.89,South,190,6.9,6.9,45,0.00,OVC,OVC,0.00,WeatherDisplay:10.37,2013-08-21 01:11:00,
2013-08-20 20:16:00,84.8,61.1,29.89,South,178,3.5,3.5,45,0.00,OVC,OVC,0.00,WeatherDisplay:10.37,2013-08-21 01:16:00,
2013-08-20 20:19:00,84.6,61.5,29.89,South,178,0.0,0.0,46,0.00,OVC,OVC,0.00,WeatherDisplay:10.37,2013-08-21 01:19:00,
2013-08-20 20:24:00,84.3,61.3,29.90,SSE,157,3.5,3.5,46,0.00,OVC,OVC,0.00,WeatherDisplay:10.37,2013-08-21 01:24:00,
2013-08-20 20:29:00,84.1,61.1,29.90,South,171,3.5,3.5,46,0.00,OVC,OVC,0.00,WeatherDisplay:10.37,2013-08-21 01:29:00,
2013-08-20 20:34:00,83.8,61.4,29.90,SSE,164,2.3,2.3,47,0.00,OVC,OVC,0.00,WeatherDisplay:10.37,2013-08-21 01:34:00,
2013-08-20 20:39:00,83.5,61.1,29.90,South,191,2.3,2.3,47,0.00,OVC,OVC,0.00,WeatherDisplay:10.37,2013-08-21 01:39:00,
2013-08-20 20:44:00,83.3,61.6,29.90,South,180,1.2,0.0,48,0.00,OVC,OVC,0.00,WeatherDisplay:10.37,2013-08-21 01:44:00,
2013-08-20 20:49:00,83.1,61.4,29.90,South,180,2.3,2.3,48,0.00,OVC,OVC,0.00,WeatherDisplay:10.37,2013-08-21 01:49:00,
2013-08-20 20:54:00,82.8,61.7,29.91,South,180,3.5,3.5,49,0.00,OVC,OVC,0.00,WeatherDisplay:10.37,2013-08-21 01:54:00,
2013-08-20 20:59:00,82.6,61.5,29.91,SSE,162,8.1,8.1,49,0.00,OVC,OVC,0.00,WeatherDisplay:10.37,2013-08-21 01:59:00,
2013-08-20 21:04:00,82.4,61.9,29.91,SSE,150,3.0,3.0,50,0.00,OVC,OVC,0.00,WeatherDisplay:10.37,2013-08-21 02:04:00,
2013-08-20 21:09:00,82.2,61.7,29.91,SSE,167,3.5,3.5,50,0.00,OVC,OVC,0.00,WeatherDisplay:10.37,2013-08-21 02:09:00,
2013-08-20 21:14:00,82.1,61.6,29.92,SSE,165,4.6,4.6,50,0.00,OVC,OVC,0.00,WeatherDisplay:10.37,2013-08-21 02:14:00,
2013-08-20 21:19:00,81.9,62.0,29.92,SSE,167,3.5,3.5,51,0.00,OVC,OVC,0.00,WeatherDisplay:10.37,2013-08-21 02:19:00,
2013-08-20 21:24:00,81.7,61.8,29.92,SSW,206,3.5,3.5,51,0.00,OVC,OVC,0.00,WeatherDisplay:10.37,2013-08-21 02:24:00,
2013-08-20 21:29:00,81.6,62.3,29.92,SSE,162,3.5,3.5,52,0.00,OVC,OVC,0.00,WeatherDisplay:10.37,2013-08-21 02:29:00,
2013-08-20 21:34:00,81.4,62.1,29.92,South,175,4.0,4.0,52,0.00,OVC,OVC,0.00,WeatherDisplay:10.37,2013-08-21 02:34:00,
2013-08-20 21:39:00,81.2,61.9,29.92,SSE,159,4.6,4.6,52,0.00,OVC,OVC,0.00,WeatherDisplay:10.37,2013-08-21 02:39:00,
2013-08-20 21:44:00,81.1,62.3,29.92,SSE,167,5.8,5.8,53,0.00,OVC,OVC,0.00,WeatherDisplay:10.37,2013-08-21 02:44:00,
2013-08-20 21:49:00,81.0,62.3,29.92,SSE,167,4.0,4.0,53,0.00,OVC,OVC,0.00,WeatherDisplay:10.37,2013-08-21 02:49:00,
2013-08-20 21:54:00,80.9,62.2,29.93,SSE,168,3.5,3.5,53,0.00,OVC,OVC,0.00,WeatherDisplay:10.37,2013-08-21 02:54:00,
2013-08-20 21:59:00,80.7,62.5,29.92,SSE,165,3.0,3.0,54,0.00,OVC,OVC,0.00,WeatherDisplay:10.37,2013-08-21 02:59:00,
2013-08-20 22:04:00,80.6,62.4,29.92,SSE,165,3.5,3.5,54,0.00,OVC,OVC,0.00,WeatherDisplay:10.37,2013-08-21 03:04:00,
2013-08-20 22:09:00,80.5,62.8,29.93,SSE,154,4.6,4.6,55,0.00,OVC,OVC,0.00,WeatherDisplay:10.37,2013-08-21 03:09:00,
2013-08-20 22:15:00,80.4,62.8,29.93,SSE,154,3.5,3.5,55,0.00,OVC,OVC,0.00,WeatherDisplay:10.37,2013-08-21 03:15:00,
2013-08-20 22:20:00,80.2,63.1,29.93,SSE,161,5.0,5.0,56,0.00,OVC,OVC,0.00,WeatherDisplay:10.37,2013-08-21 03:20:00,
2013-08-20 22:25:00,80.2,63.1,29.93,SSE,149,5.8,5.8,56,0.00,OVC,OVC,0.00,WeatherDisplay:10.37,2013-08-21 03:25:00,
2013-08-20 22:30:00,80.1,63.0,29.93,SSE,161,2.3,2.3,56,0.00,OVC,OVC,0.00,WeatherDisplay:10.37,2013-08-21 03:30:00,
2013-08-20 22:35:00,80.0,63.4,29.93,SSE,166,4.0,4.0,57,0.00,OVC,OVC,0.00,WeatherDisplay:10.37,2013-08-21 03:35:00,
2013-08-20 22:40:00,80.0,63.4,29.93,SE,135,4.0,4.0,57,0.00,OVC,OVC,0.00,WeatherDisplay:10.37,2013-08-21 03:40:00,
2013-08-20 22:45:00,79.9,63.3,29.93,SSE,150,4.0,4.0,57,0.00,OVC,OVC,0.00,WeatherDisplay:10.37,2013-08-21 03:45:00,
2013-08-20 22:50:00,79.8,63.7,29.92,South,173,4.6,4.6,58,0.00,OVC,OVC,0.00,WeatherDisplay:10.37,2013-08-21 03:50:00,
2013-08-20 22:55:00,79.8,63.7,29.93,South,173,3.0,3.0,58,0.00,OVC,OVC,0.00,WeatherDisplay:10.37,2013-08-21 03:55:00,
2013-08-20 23:00:00,79.7,63.6,29.92,SSE,168,1.2,0.0,58,0.00,OVC,OVC,0.00,WeatherDisplay:10.37,2013-08-21 04:00:00,
2013-08-20 23:01:00,79.6,63.5,29.92,SSE,157,2.0,2.0,58,0.00,OVC,OVC,0.00,WeatherDisplay:10.37,2013-08-21 04:01:00,
2013-08-20 23:06:00,79.5,63.4,29.92,SSE,165,2.3,2.3,58,0.00,OVC,OVC,0.00,WeatherDisplay:10.37,2013-08-21 04:06:00,
2013-08-20 23:11:00,79.4,63.8,29.92,SSE,163,3.5,3.5,59,0.00,OVC,OVC,0.00,WeatherDisplay:10.37,2013-08-21 04:11:00,
2013-08-20 23:16:00,79.3,63.7,29.92,SSE,161,3.5,3.5,59,0.00,OVC,OVC,0.00,WeatherDisplay:10.37,2013-08-21 04:16:00,
2013-08-20 23:21:00,79.3,63.7,29.93,SSE,165,6.9,6.9,59,0.00,OVC,OVC,0.00,WeatherDisplay:10.37,2013-08-21 04:21:00,
2013-08-20 23:26:00,79.2,63.6,29.93,South,171,4.6,4.6,59,0.00,OVC,OVC,0.00,WeatherDisplay:10.37,2013-08-21 04:26:00,
2013-08-20 23:31:00,79.2,63.6,29.93,South,185,2.3,2.3,59,0.00,OVC,OVC,0.00,WeatherDisplay:10.37,2013-08-21 04:31:00,
2013-08-20 23:36:00,79.1,64.0,29.93,South,178,3.5,3.5,60,0.00,OVC,OVC,0.00,WeatherDisplay:10.37,2013-08-21 04:36:00,
2013-08-20 23:41:00,79.0,63.9,29.93,South,170,3.5,3.5,60,0.00,OVC,OVC,0.00,WeatherDisplay:10.37,2013-08-21 04:41:00,
2013-08-20 23:46:00,78.9,63.8,29.93,SSE,158,5.8,5.8,60,0.00,OVC,OVC,0.00,WeatherDisplay:10.37,2013-08-21 04:46:00,
2013-08-20 23:51:00,78.8,63.7,29.93,South,174,4.0,4.0,60,0.00,OVC,OVC,0.00,WeatherDisplay:10.37,2013-08-21 04:51:00,
2013-08-20 23:56:00,78.7,63.6,29.93,South,180,2.3,2.3,60,0.00,OVC,OVC,0.00,WeatherDisplay:10.37,2013-08-21 04:56:00,